createdAt,value
2023-02-28T00:01:49.663Z,7.60
2023-02-28T00:04:16.846Z,8.20
2023-02-28T00:06:44.194Z,9.30
2023-02-28T00:09:11.159Z,8.20
2023-02-28T00:11:38.987Z,9.30
2023-02-28T00:14:05.937Z,8.50
2023-02-28T00:16:33.195Z,8.50
2023-02-28T00:19:00.114Z,9.00
2023-02-28T00:21:27.932Z,9.30
2023-02-28T00:23:55.030Z,8.90
2023-02-28T00:26:22.174Z,8.70
2023-02-28T00:28:49.579Z,10.10
2023-02-28T00:31:16.586Z,7.20
2023-02-28T00:33:43.283Z,8.60
2023-02-28T00:36:12.604Z,8.70
2023-02-28T00:38:41.077Z,9.10
2023-02-28T00:41:08.518Z,8.60
2023-02-28T00:43:37.070Z,8.30
2023-02-28T00:46:04.641Z,8.20
2023-02-28T00:48:32.329Z,7.40
2023-02-28T00:50:59.168Z,8.30
2023-02-28T00:53:26.345Z,7.90
2023-02-28T00:55:53.484Z,7.70
2023-02-28T00:58:20.472Z,8.90
2023-02-28T01:00:50.538Z,8.40
2023-02-28T01:03:19.383Z,7.80
2023-02-28T01:05:47.321Z,7.50
2023-02-28T01:08:15.277Z,6.70
2023-02-28T01:10:42.139Z,7.00
2023-02-28T01:13:08.924Z,7.60
2023-02-28T01:15:35.872Z,7.90
2023-02-28T01:18:02.859Z,7.50
2023-02-28T01:20:29.602Z,6.80
2023-02-28T01:22:56.600Z,7.80
2023-02-28T01:25:23.569Z,7.50
2023-02-28T01:27:50.411Z,7.80
2023-02-28T01:30:18.058Z,8.80
2023-02-28T01:32:44.929Z,7.10
2023-02-28T01:35:11.796Z,6.60
2023-02-28T01:37:38.830Z,6.70
2023-02-28T01:40:06.467Z,6.70
2023-02-28T01:42:33.166Z,7.20
2023-02-28T01:45:06.570Z,7.30
2023-02-28T01:47:39.649Z,6.70
2023-02-28T01:50:12.780Z,7.00
2023-02-28T01:52:39.749Z,7.20
2023-02-28T01:55:09.165Z,7.80
2023-02-28T01:57:44.672Z,7.80
2023-02-28T02:00:17.442Z,7.30
2023-02-28T02:02:47.651Z,7.30
2023-02-28T02:05:24.899Z,7.50
2023-02-28T02:07:55.842Z,7.10
2023-02-28T02:10:30.324Z,7.50
2023-02-28T02:13:20.602Z,6.30
2023-02-28T02:16:09.990Z,6.30
2023-02-28T02:19:03.653Z,6.20
2023-02-28T02:21:49.951Z,5.30
2023-02-28T02:24:26.062Z,6.30
2023-02-28T02:27:13.328Z,6.40
2023-02-28T02:29:54.002Z,5.60
2023-02-28T02:32:34.001Z,6.00
2023-02-28T02:35:18.139Z,7.50
2023-02-28T02:38:04.598Z,6.80
2023-02-28T02:40:48.661Z,6.20
2023-02-28T02:43:33.422Z,6.60
2023-02-28T02:46:08.999Z,6.40
2023-02-28T02:48:41.014Z,6.60
2023-02-28T02:51:18.797Z,6.50
2023-02-28T02:53:51.288Z,6.40
2023-02-28T02:56:25.921Z,7.60
2023-02-28T02:58:57.086Z,7.30
2023-02-28T03:01:30.493Z,7.30
2023-02-28T03:04:02.960Z,7.60
2023-02-28T03:06:29.994Z,7.50
2023-02-28T03:08:56.996Z,9.30
2023-02-28T03:11:24.498Z,8.80
2023-02-28T03:14:11.428Z,8.40
2023-02-28T03:16:57.861Z,8.80
2023-02-28T03:19:56.125Z,8.90
2023-02-28T03:22:39.611Z,9.30
2023-02-28T03:25:10.100Z,9.00
2023-02-28T03:27:43.125Z,9.00
2023-02-28T03:30:26.183Z,9.60
2023-02-28T03:33:16.634Z,9.70
2023-02-28T03:36:05.618Z,7.70
2023-02-28T03:38:50.374Z,8.90
2023-02-28T03:41:43.863Z,8.00
2023-02-28T03:44:37.538Z,6.90
2023-02-28T03:47:18.166Z,7.60
2023-02-28T03:49:57.401Z,6.90
2023-02-28T03:52:28.947Z,6.30
2023-02-28T03:55:04.308Z,7.80
2023-02-28T03:57:42.194Z,8.20
2023-02-28T04:00:17.842Z,7.00
2023-02-28T04:02:44.889Z,8.20
2023-02-28T04:05:12.003Z,7.70
2023-02-28T04:07:39.304Z,8.20
2023-02-28T04:10:06.740Z,7.80
2023-02-28T04:12:33.485Z,7.90
2023-02-28T04:15:00.432Z,8.00
2023-02-28T04:17:27.366Z,8.30
2023-02-28T04:19:55.099Z,7.90
2023-02-28T04:22:21.987Z,7.90
2023-02-28T04:24:48.756Z,8.70
2023-02-28T04:27:17.145Z,10.70
2023-02-28T04:29:45.817Z,10.10
2023-02-28T04:32:13.357Z,12.90
2023-02-28T04:34:40.743Z,14.50
2023-02-28T04:37:13.633Z,12.30
2023-02-28T04:39:42.017Z,13.10
2023-02-28T04:42:09.137Z,11.70
2023-02-28T04:44:36.029Z,11.80
2023-02-28T04:47:02.934Z,9.90
2023-02-28T04:49:30.034Z,10.20
2023-02-28T04:51:57.018Z,10.70
2023-02-28T04:54:23.933Z,9.50
2023-02-28T04:56:51.070Z,9.40
2023-02-28T04:59:18.209Z,9.20
2023-02-28T05:01:48.647Z,7.90
2023-02-28T05:04:15.890Z,9.10
2023-02-28T05:06:43.669Z,7.60
2023-02-28T05:09:12.782Z,7.70
2023-02-28T05:11:40.936Z,8.60
2023-02-28T05:14:13.286Z,9.70
2023-02-28T05:16:40.611Z,8.40
2023-02-28T05:19:07.746Z,7.50
2023-02-28T05:21:41.116Z,8.70
2023-02-28T05:24:11.795Z,7.10
2023-02-28T05:26:43.992Z,8.10
2023-02-28T05:29:11.647Z,9.30
2023-02-28T05:31:38.923Z,10.40
2023-02-28T05:34:06.352Z,9.80
2023-02-28T05:36:34.264Z,9.00
2023-02-28T05:39:01.201Z,9.30
2023-02-28T05:41:28.570Z,10.30
2023-02-28T05:43:56.100Z,10.00
2023-02-28T05:46:23.468Z,10.20
2023-02-28T05:48:50.503Z,9.90
2023-02-28T05:51:18.448Z,10.10
2023-02-28T05:53:45.921Z,10.50
2023-02-28T05:56:12.892Z,14.50
2023-02-28T05:58:39.571Z,17.30
2023-02-28T06:01:32.497Z,15.10
2023-02-28T06:04:01.422Z,15.50
2023-02-28T06:06:28.983Z,15.10
2023-02-28T06:08:55.889Z,16.30
2023-02-28T06:11:25.296Z,15.90
2023-02-28T06:13:58.556Z,17.30
2023-02-28T06:16:25.843Z,17.80
2023-02-28T06:18:53.972Z,18.20
2023-02-28T06:21:20.647Z,18.60
2023-02-28T06:23:47.626Z,17.60
2023-02-28T06:26:14.730Z,14.50
2023-02-28T06:28:41.793Z,12.60
2023-02-28T06:31:14.610Z,12.00
2023-02-28T06:33:42.581Z,12.10
2023-02-28T06:36:11.135Z,12.20
2023-02-28T06:38:38.491Z,13.20
2023-02-28T06:41:06.444Z,11.70
2023-02-28T06:43:37.808Z,11.30
2023-02-28T06:46:08.009Z,12.60
2023-02-28T06:48:36.096Z,10.80
2023-02-28T06:51:08.835Z,11.30
2023-02-28T06:53:36.688Z,12.80
2023-02-28T06:56:13.372Z,14.10
2023-02-28T06:58:40.581Z,13.70
2023-02-28T07:01:08.639Z,13.10
2023-02-28T07:03:37.050Z,12.70
2023-02-28T07:06:05.452Z,14.00
2023-02-28T07:08:32.887Z,13.10
2023-02-28T07:11:00.059Z,17.90
2023-02-28T07:13:27.192Z,20.90
2023-02-28T07:16:02.191Z,22.20
2023-02-28T07:18:29.774Z,20.70
2023-02-28T07:20:57.006Z,21.30
2023-02-28T07:23:23.990Z,19.60
2023-02-28T07:25:52.107Z,19.30
2023-02-28T07:28:19.084Z,17.00
2023-02-28T07:30:45.975Z,16.30
2023-02-28T07:33:12.751Z,14.40
2023-02-28T07:35:39.492Z,14.20
2023-02-28T07:38:08.677Z,11.10
2023-02-28T07:40:36.552Z,15.50
2023-02-28T07:43:04.785Z,14.00
2023-02-28T07:45:35.415Z,13.90
2023-02-28T07:48:03.045Z,12.00
2023-02-28T07:50:32.834Z,11.50
2023-02-28T07:53:00.369Z,11.00
2023-02-28T07:55:27.535Z,12.90
2023-02-28T07:57:54.945Z,9.50
2023-02-28T08:00:22.071Z,9.10
2023-02-28T08:02:48.809Z,9.20
2023-02-28T08:05:15.671Z,8.20
2023-02-28T08:07:42.403Z,8.10
2023-02-28T08:10:11.463Z,8.30
2023-02-28T08:12:38.232Z,7.10
2023-02-28T08:15:05.304Z,7.70
2023-02-28T08:17:34.324Z,7.70
2023-02-28T08:20:01.996Z,6.40
2023-02-28T08:22:28.798Z,7.10
2023-02-28T08:24:55.616Z,6.50
2023-02-28T08:27:22.344Z,5.70
2023-02-28T08:29:49.218Z,5.90
2023-02-28T08:32:28.839Z,5.90
2023-02-28T08:34:56.439Z,5.50
2023-02-28T08:37:23.433Z,5.60
2023-02-28T08:39:50.187Z,6.30
2023-02-28T08:42:16.989Z,6.00
2023-02-28T08:44:43.820Z,5.40
2023-02-28T08:47:10.562Z,5.00
2023-02-28T08:49:38.702Z,5.70
2023-02-28T08:52:05.668Z,6.20
2023-02-28T08:54:32.519Z,5.40
2023-02-28T08:56:59.297Z,5.80
2023-02-28T08:59:26.101Z,6.00
2023-02-28T09:01:52.843Z,6.50
2023-02-28T09:04:20.665Z,6.40
2023-02-28T09:06:49.837Z,7.10
2023-02-28T09:09:17.001Z,6.50
2023-02-28T09:11:43.879Z,6.80
2023-02-28T09:14:11.146Z,6.10
2023-02-28T09:16:38.682Z,7.50
2023-02-28T09:19:05.652Z,6.70
2023-02-28T09:21:32.677Z,7.00
2023-02-28T09:23:59.679Z,5.70
2023-02-28T09:26:34.836Z,5.50
2023-02-28T09:29:10.276Z,6.30
2023-02-28T09:31:37.986Z,6.70
2023-02-28T09:34:05.136Z,6.10
2023-02-28T09:36:43.584Z,6.50
2023-02-28T09:39:11.391Z,6.10
2023-02-28T09:41:53.507Z,6.40
2023-02-28T09:44:26.450Z,7.30
2023-02-28T09:47:17.144Z,7.00
2023-02-28T09:49:48.144Z,7.10
2023-02-28T09:52:20.443Z,6.30
2023-02-28T09:54:48.364Z,6.40
2023-02-28T09:57:33.083Z,7.20
2023-02-28T10:00:11.415Z,7.50
2023-02-28T10:03:04.241Z,6.60
2023-02-28T10:05:52.275Z,6.60
2023-02-28T10:08:26.377Z,5.70
2023-02-28T10:10:58.264Z,8.00
2023-02-28T10:13:53.650Z,6.60
2023-02-28T10:16:26.485Z,6.80
2023-02-28T10:18:59.105Z,7.50
2023-02-28T10:21:35.198Z,7.80
2023-02-28T10:24:25.032Z,7.30
2023-02-28T10:29:20.622Z,8.10
2023-02-28T10:31:48.460Z,7.20
2023-02-28T10:34:15.254Z,6.70
2023-02-28T10:36:44.905Z,7.10
2023-02-28T10:39:40.267Z,6.30
2023-02-28T10:42:21.017Z,5.90
2023-02-28T10:44:47.828Z,6.00
2023-02-28T10:47:20.767Z,6.20
2023-02-28T10:49:53.505Z,6.50
2023-02-28T10:52:38.914Z,7.50
2023-02-28T10:55:35.501Z,7.20
2023-02-28T10:58:02.197Z,7.30
2023-02-28T11:00:36.462Z,7.10
2023-02-28T11:03:23.628Z,6.60
2023-02-28T11:05:50.407Z,5.80
2023-02-28T11:08:19.625Z,7.10
2023-02-28T11:11:07.457Z,6.90
2023-02-28T11:13:36.848Z,8.30
2023-02-28T11:16:06.720Z,7.80
2023-02-28T11:21:04.019Z,6.70
2023-02-28T11:23:35.090Z,7.20
2023-02-28T11:26:06.068Z,5.80
2023-02-28T11:28:36.291Z,7.60
2023-02-28T11:31:12.538Z,6.90
2023-02-28T11:33:51.421Z,7.30
2023-02-28T11:36:28.429Z,7.10
2023-02-28T11:39:16.562Z,7.90
2023-02-28T11:42:07.489Z,6.70
2023-02-28T11:44:48.110Z,6.70
2023-02-28T11:47:33.571Z,6.90
2023-02-28T11:50:28.712Z,6.80
2023-02-28T11:53:01.114Z,7.80
2023-02-28T11:55:40.153Z,7.40
2023-02-28T11:58:34.164Z,7.60
2023-02-28T12:01:20.688Z,7.00
2023-02-28T12:04:05.176Z,6.00
2023-02-28T12:07:00.881Z,6.90
2023-02-28T12:09:36.615Z,5.90
2023-02-28T12:12:31.183Z,7.70
2023-02-28T12:15:13.613Z,6.70
2023-02-28T12:17:56.231Z,6.50
2023-02-28T12:20:31.981Z,6.60
2023-02-28T12:23:21.230Z,6.90
2023-02-28T12:25:54.275Z,7.10
2023-02-28T12:28:27.322Z,6.00
2023-02-28T12:31:15.580Z,6.00
2023-02-28T12:33:52.463Z,6.40
2023-02-28T12:36:23.196Z,6.10
2023-02-28T12:39:00.145Z,7.10
2023-02-28T12:41:40.919Z,6.20
2023-02-28T12:44:48.889Z,6.00
2023-02-28T12:47:18.209Z,6.30
2023-02-28T12:49:59.469Z,5.80
2023-02-28T12:52:46.304Z,5.80
2023-02-28T12:55:27.051Z,6.10
2023-02-28T12:58:09.764Z,6.00
2023-02-28T13:00:44.134Z,5.30
2023-02-28T13:03:32.741Z,5.40
2023-02-28T13:06:05.509Z,5.30
2023-02-28T13:09:00.131Z,5.90
2023-02-28T13:11:32.434Z,6.00
2023-02-28T13:14:02.047Z,6.30
2023-02-28T13:16:29.161Z,6.00
2023-02-28T13:19:11.641Z,5.60
2023-02-28T13:21:46.011Z,6.50
2023-02-28T13:24:49.417Z,6.00
2023-02-28T13:27:16.066Z,5.80
2023-02-28T13:29:45.885Z,6.20
2023-02-28T13:34:59.507Z,6.70
2023-02-28T13:37:26.205Z,5.40
2023-02-28T13:39:58.158Z,6.60
2023-02-28T13:42:40.627Z,7.30
2023-02-28T13:45:08.191Z,5.70
2023-02-28T13:47:40.663Z,6.30
2023-02-28T13:50:25.258Z,6.50
2023-02-28T13:53:04.190Z,6.40
2023-02-28T13:55:39.530Z,7.00
2023-02-28T13:58:30.405Z,6.20
2023-02-28T14:01:26.899Z,5.40
2023-02-28T14:04:15.674Z,6.00
2023-02-28T14:06:51.032Z,5.60
2023-02-28T14:09:31.600Z,7.20
2023-02-28T14:12:19.012Z,7.30
2023-02-28T14:14:45.709Z,5.70
2023-02-28T14:17:18.230Z,6.60
2023-02-28T14:19:49.935Z,6.50
2023-02-28T14:22:20.116Z,6.20
2023-02-28T14:24:46.859Z,6.60
2023-02-28T14:27:27.516Z,7.30
2023-02-28T14:30:29.434Z,6.10
2023-02-28T14:33:24.778Z,6.40
2023-02-28T14:35:54.572Z,6.10
2023-02-28T14:40:58.376Z,5.90
2023-02-28T14:43:29.624Z,5.50
2023-02-28T14:46:01.861Z,6.70
2023-02-28T14:48:29.596Z,6.40
2023-02-28T14:51:01.473Z,5.70
2023-02-28T14:53:37.553Z,5.70
2023-02-28T14:56:05.235Z,6.10
2023-02-28T14:58:34.698Z,6.70
2023-02-28T15:01:04.165Z,6.20
2023-02-28T15:03:32.955Z,7.20
2023-02-28T15:06:07.562Z,7.00
2023-02-28T15:08:37.370Z,7.40
2023-02-28T15:11:22.280Z,6.60
2023-02-28T15:13:51.801Z,7.40
2023-02-28T15:16:22.291Z,6.60
2023-02-28T15:18:49.389Z,7.40
2023-02-28T15:21:21.839Z,8.20
2023-02-28T15:23:54.147Z,7.40
2023-02-28T15:26:26.297Z,7.20
2023-02-28T15:28:59.960Z,9.70
2023-02-28T15:31:46.778Z,6.50
2023-02-28T15:34:33.643Z,7.00
2023-02-28T15:37:22.188Z,6.80
2023-02-28T15:39:49.033Z,6.80
2023-02-28T15:42:24.847Z,7.40
2023-02-28T15:44:51.641Z,8.00
2023-02-28T15:47:24.017Z,7.90
2023-02-28T15:49:57.988Z,7.30
2023-02-28T15:52:42.167Z,8.00
2023-02-28T15:55:22.735Z,7.40
2023-02-28T15:57:54.939Z,7.40
2023-02-28T16:00:26.905Z,7.20
2023-02-28T16:02:53.947Z,7.70
2023-02-28T16:05:33.080Z,7.00
2023-02-28T16:08:03.760Z,7.10
2023-02-28T16:10:30.887Z,8.30
2023-02-28T16:12:59.663Z,8.40
2023-02-28T16:15:29.978Z,8.80
2023-02-28T16:17:57.800Z,8.40
2023-02-28T16:20:30.611Z,8.30
2023-02-28T16:22:57.937Z,8.50
2023-02-28T16:25:34.697Z,9.60
2023-02-28T16:28:02.065Z,11.30
2023-02-28T16:30:33.873Z,9.40
2023-02-28T16:33:01.056Z,11.40
2023-02-28T16:35:27.842Z,9.70
2023-02-28T16:37:55.326Z,9.80
2023-02-28T16:40:26.519Z,8.20
2023-02-28T16:43:01.037Z,8.70
2023-02-28T16:45:29.976Z,8.70
2023-02-28T16:47:57.633Z,8.40
2023-02-28T16:50:30.143Z,8.70
2023-02-28T16:52:57.417Z,8.30
2023-02-28T16:55:25.651Z,8.90
2023-02-28T16:58:00.958Z,9.10
2023-02-28T17:00:42.658Z,8.70
2023-02-28T17:03:39.720Z,9.20
2023-02-28T17:06:07.753Z,9.60
2023-02-28T17:11:15.421Z,12.50
2023-02-28T17:13:42.096Z,12.50
2023-02-28T17:16:27.909Z,12.30
2023-02-28T17:18:58.665Z,12.60
2023-02-28T17:21:25.926Z,12.40
2023-02-28T17:23:52.705Z,13.70
2023-02-28T17:26:21.614Z,14.60
2023-02-28T17:28:49.512Z,18.20
2023-02-28T17:31:16.502Z,15.40
2023-02-28T17:33:43.232Z,14.00
2023-02-28T17:36:30.631Z,15.20
2023-02-28T17:38:59.585Z,13.10
2023-02-28T17:41:27.720Z,14.50
2023-02-28T17:43:54.508Z,15.60
2023-02-28T17:46:23.636Z,15.00
2023-02-28T17:48:52.581Z,17.20
2023-02-28T17:51:21.026Z,16.90
2023-02-28T17:53:49.598Z,17.70
2023-02-28T17:56:20.416Z,17.00
2023-02-28T17:58:47.309Z,16.90
2023-02-28T18:01:14.678Z,16.80
2023-02-28T18:03:41.869Z,19.50
2023-02-28T18:06:15.319Z,18.50
2023-02-28T18:08:42.699Z,17.80
2023-02-28T18:11:18.398Z,16.90
2023-02-28T18:13:51.346Z,17.90
2023-02-28T18:16:20.696Z,21.00
2023-02-28T18:18:47.890Z,21.30
2023-02-28T18:21:16.913Z,20.30
2023-02-28T18:23:48.632Z,19.90
2023-02-28T18:26:17.153Z,17.90
2023-02-28T18:28:44.946Z,16.30
2023-02-28T18:31:15.698Z,17.00
2023-02-28T18:33:44.007Z,18.30
2023-02-28T18:36:11.163Z,22.50
2023-02-28T18:38:38.146Z,22.00
2023-02-28T18:41:07.675Z,21.10
2023-02-28T18:43:40.833Z,20.10
2023-02-28T18:46:10.794Z,19.20
2023-02-28T18:48:38.214Z,18.30
2023-02-28T18:51:17.225Z,19.50
2023-02-28T18:53:44.941Z,19.70
2023-02-28T18:56:14.400Z,20.10
2023-02-28T18:58:41.907Z,19.80
2023-02-28T19:01:16.774Z,20.30
2023-02-28T19:03:45.240Z,19.70
2023-02-28T19:06:12.101Z,18.60
2023-02-28T19:08:39.509Z,21.00
2023-02-28T19:11:11.133Z,22.00
2023-02-28T19:13:38.236Z,21.70
2023-02-28T19:16:07.461Z,20.70
2023-02-28T19:18:34.558Z,22.50
2023-02-28T19:21:01.768Z,23.50
2023-02-28T19:23:29.314Z,21.30
2023-02-28T19:25:56.707Z,21.20
2023-02-28T19:28:24.855Z,19.80
2023-02-28T19:30:53.178Z,21.40
2023-02-28T19:33:20.888Z,20.40
2023-02-28T19:35:48.753Z,21.80
2023-02-28T19:38:16.728Z,19.50
2023-02-28T19:40:43.466Z,20.10
2023-02-28T19:43:11.595Z,19.10
2023-02-28T19:45:38.947Z,18.80
2023-02-28T19:48:06.077Z,19.30
2023-02-28T19:50:32.931Z,21.20
2023-02-28T19:53:01.406Z,24.00
2023-02-28T19:55:28.475Z,23.70
2023-02-28T19:57:55.285Z,20.60
2023-02-28T20:00:22.070Z,21.30
2023-02-28T20:02:48.882Z,21.00
2023-02-28T20:05:15.682Z,21.40
2023-02-28T20:07:42.432Z,23.00
2023-02-28T20:10:10.113Z,22.30
2023-02-28T20:12:36.977Z,24.40
2023-02-28T20:15:04.068Z,23.90
2023-02-28T20:17:30.958Z,22.90
2023-02-28T20:19:57.844Z,23.40
2023-02-28T20:22:24.823Z,25.50
2023-02-28T20:24:51.609Z,26.80
2023-02-28T20:27:18.446Z,23.40
2023-02-28T20:29:45.288Z,25.40
2023-02-28T20:32:13.356Z,25.10
2023-02-28T20:34:40.314Z,24.60
2023-02-28T20:37:07.100Z,24.60
2023-02-28T20:39:33.884Z,26.10
2023-02-28T20:42:00.677Z,26.70
2023-02-28T20:44:27.466Z,27.10
2023-02-28T20:46:54.353Z,24.40
2023-02-28T20:49:21.228Z,25.10
2023-02-28T20:51:47.990Z,26.10
2023-02-28T20:54:16.393Z,23.00
2023-02-28T20:56:43.269Z,24.10
2023-02-28T20:59:13.699Z,26.10
2023-02-28T21:01:42.985Z,23.40
2023-02-28T21:04:09.738Z,26.60
2023-02-28T21:06:39.265Z,23.80
2023-02-28T21:09:09.068Z,23.90
2023-02-28T21:11:38.578Z,22.20
2023-02-28T21:14:09.655Z,22.70
2023-02-28T21:16:37.934Z,23.30
2023-02-28T21:19:05.544Z,24.20
2023-02-28T21:21:39.406Z,25.80
2023-02-28T21:24:07.210Z,23.00
2023-02-28T21:26:34.246Z,24.50
2023-02-28T21:29:02.652Z,22.80
2023-02-28T21:31:32.272Z,22.40
2023-02-28T21:34:01.067Z,23.30
2023-02-28T21:36:33.117Z,23.60
2023-02-28T21:39:23.561Z,22.60
2023-02-28T21:41:50.387Z,22.30
2023-02-28T21:44:21.499Z,24.40
2023-02-28T21:46:52.276Z,25.60
2023-02-28T21:49:19.165Z,23.50
2023-02-28T21:51:46.137Z,26.70
2023-02-28T21:54:13.300Z,27.00
2023-02-28T21:56:41.027Z,23.60
2023-02-28T21:59:09.770Z,21.80
2023-02-28T22:01:43.745Z,24.20
2023-02-28T22:04:21.060Z,23.10
2023-02-28T22:06:58.103Z,23.70
2023-02-28T22:09:25.954Z,25.30
2023-02-28T22:11:52.807Z,27.10
2023-02-28T22:14:20.056Z,24.30
2023-02-28T22:16:52.076Z,23.40
2023-02-28T22:19:22.878Z,24.50
2023-02-28T22:21:50.406Z,22.90
2023-02-28T22:24:20.853Z,23.60
2023-02-28T22:26:49.757Z,23.10
2023-02-28T22:29:16.582Z,20.70
2023-02-28T22:31:43.415Z,21.40
2023-02-28T22:34:12.265Z,21.80
2023-02-28T22:36:41.783Z,21.00
2023-02-28T22:39:09.452Z,21.10
2023-02-28T22:41:36.637Z,21.70
2023-02-28T22:44:05.095Z,22.50
2023-02-28T22:46:34.404Z,20.80
2023-02-28T22:49:04.670Z,21.90
2023-02-28T22:51:32.145Z,22.00
2023-02-28T22:53:59.169Z,22.70
2023-02-28T22:56:28.749Z,21.50
2023-02-28T22:58:57.615Z,19.80
2023-02-28T23:01:26.676Z,21.80
2023-02-28T23:03:55.213Z,21.80
2023-02-28T23:06:25.125Z,21.60
2023-02-28T23:11:24.343Z,20.30
2023-02-28T23:14:00.933Z,24.80
2023-02-28T23:16:35.423Z,22.70
2023-02-28T23:19:06.037Z,23.70
2023-02-28T23:21:33.615Z,26.10
2023-02-28T23:24:10.724Z,26.80
2023-02-28T23:26:41.722Z,24.10
2023-02-28T23:29:09.016Z,23.30
2023-02-28T23:31:36.506Z,23.50
2023-02-28T23:34:03.442Z,24.70
2023-02-28T23:36:30.702Z,24.40
2023-02-28T23:38:58.316Z,23.30
2023-02-28T23:41:25.510Z,24.00
2023-02-28T23:43:53.769Z,23.40
2023-02-28T23:46:21.998Z,23.70
2023-02-28T23:48:48.733Z,23.80
2023-02-28T23:51:21.411Z,23.80
2023-02-28T23:53:50.726Z,23.10
2023-02-28T23:56:21.336Z,22.50
2023-02-28T23:58:49.023Z,21.50
